createdAt,value
2022-11-16T00:01:07.901Z,5.60
2022-11-16T00:03:35.995Z,5.70
2022-11-16T00:06:04.839Z,5.30
2022-11-16T00:08:34.060Z,5.50
2022-11-16T00:11:06.201Z,5.50
2022-11-16T00:13:33.248Z,5.30
2022-11-16T00:16:00.140Z,5.70
2022-11-16T00:20:54.371Z,5.50
2022-11-16T00:23:21.447Z,5.40
2022-11-16T00:25:48.505Z,5.40
2022-11-16T00:28:15.549Z,5.10
2022-11-16T00:30:42.231Z,5.30
2022-11-16T00:33:14.065Z,5.60
2022-11-16T00:35:41.056Z,5.20
2022-11-16T00:38:08.403Z,5.40
2022-11-16T00:43:01.828Z,5.40
2022-11-16T00:45:28.380Z,5.50
2022-11-16T00:48:00.178Z,5.30
2022-11-16T00:50:27.237Z,5.60
2022-11-16T00:52:53.929Z,5.60
2022-11-16T00:55:21.204Z,5.20
2022-11-16T00:57:47.844Z,5.40
2022-11-16T01:00:15.425Z,5.40
2022-11-16T01:05:10.212Z,5.30
2022-11-16T01:07:38.124Z,5.30
2022-11-16T01:12:32.446Z,5.30
2022-11-16T01:14:59.680Z,5.30
2022-11-16T01:17:26.541Z,5.30
2022-11-16T01:19:54.333Z,5.00
2022-11-16T01:24:48.625Z,5.20
2022-11-16T01:27:15.479Z,5.30
2022-11-16T01:29:42.760Z,5.30
2022-11-16T01:34:36.620Z,5.20
2022-11-16T01:45:07.989Z,5.20
2022-11-16T01:47:38.257Z,5.30
2022-11-16T01:50:22.007Z,5.20
2022-11-16T01:52:54.192Z,5.20
2022-11-16T01:55:23.649Z,5.30
2022-11-16T01:57:50.701Z,5.20
2022-11-16T02:00:18.800Z,5.40
2022-11-16T02:03:00.610Z,5.30
2022-11-16T02:05:51.894Z,5.30
2022-11-16T02:08:52.443Z,5.20
2022-11-16T02:11:43.356Z,5.10
2022-11-16T02:14:24.438Z,5.20
2022-11-16T02:16:59.783Z,4.90
2022-11-16T02:19:59.566Z,5.20
2022-11-16T02:22:38.936Z,5.00
2022-11-16T02:25:12.623Z,5.20
2022-11-16T02:28:00.968Z,5.10
2022-11-16T02:30:30.794Z,5.00
2022-11-16T02:33:02.645Z,5.10
2022-11-16T02:35:36.246Z,5.20
2022-11-16T02:38:07.833Z,5.20
2022-11-16T02:40:43.143Z,5.20
2022-11-16T02:43:14.485Z,5.20
2022-11-16T02:45:48.455Z,5.40
2022-11-16T02:48:21.111Z,5.10
2022-11-16T02:50:51.980Z,5.10
2022-11-16T02:53:22.181Z,5.20
2022-11-16T02:58:19.876Z,5.00
2022-11-16T03:00:54.932Z,5.60
2022-11-16T03:03:29.363Z,5.30
2022-11-16T03:06:01.547Z,5.10
2022-11-16T03:08:31.293Z,5.20
2022-11-16T03:11:19.314Z,5.00
2022-11-16T03:13:47.340Z,4.90
2022-11-16T03:16:20.484Z,5.00
2022-11-16T03:18:49.790Z,5.00
2022-11-16T03:21:21.607Z,5.00
2022-11-16T03:23:51.284Z,5.00
2022-11-16T03:26:24.177Z,5.00
2022-11-16T03:28:58.078Z,5.20
2022-11-16T03:31:30.247Z,5.20
2022-11-16T03:34:02.080Z,5.00
2022-11-16T03:36:33.240Z,4.90
2022-11-16T03:39:05.319Z,5.00
2022-11-16T03:41:34.701Z,5.10
2022-11-16T03:44:01.572Z,5.10
2022-11-16T03:46:29.054Z,5.20
2022-11-16T03:49:00.487Z,5.20
2022-11-16T03:51:28.131Z,5.20
2022-11-16T03:53:55.080Z,5.20
2022-11-16T03:58:48.892Z,5.20
2022-11-16T04:03:48.592Z,5.30
2022-11-16T04:06:33.822Z,5.30
2022-11-16T04:12:04.151Z,5.40
2022-11-16T04:14:49.704Z,5.30
2022-11-16T04:17:36.529Z,5.40
2022-11-16T04:20:22.868Z,5.40
2022-11-16T04:23:12.519Z,5.60
2022-11-16T04:25:41.453Z,5.40
2022-11-16T04:28:13.736Z,5.30
2022-11-16T04:30:59.417Z,5.50
2022-11-16T04:33:44.997Z,5.60
2022-11-16T04:36:30.322Z,5.40
2022-11-16T04:38:56.852Z,5.70
2022-11-16T04:41:38.465Z,5.70
2022-11-16T04:44:06.265Z,5.60
2022-11-16T04:46:51.517Z,5.60
2022-11-16T04:49:18.105Z,5.60
2022-11-16T04:51:45.339Z,5.90
2022-11-16T04:54:12.214Z,5.60
2022-11-16T04:56:38.818Z,5.90
2022-11-16T05:01:49.717Z,5.60
2022-11-16T05:04:16.407Z,5.80
2022-11-16T05:06:46.172Z,5.70
2022-11-16T05:09:14.051Z,5.60
2022-11-16T05:11:40.657Z,5.80
2022-11-16T05:14:09.025Z,5.80
2022-11-16T05:19:21.136Z,5.90
2022-11-16T05:24:33.599Z,6.20
2022-11-16T05:27:00.577Z,5.90
2022-11-16T05:29:27.252Z,5.90
2022-11-16T05:31:53.803Z,5.90
2022-11-16T05:36:47.383Z,6.00
2022-11-16T05:39:15.234Z,6.10
2022-11-16T05:44:08.799Z,6.30
2022-11-16T05:46:35.468Z,6.00
2022-11-16T05:49:02.245Z,6.20
2022-11-16T05:51:28.993Z,6.40
2022-11-16T05:53:55.847Z,6.30
2022-11-16T05:56:23.236Z,6.40
2022-11-16T05:58:49.912Z,6.20
2022-11-16T06:01:16.568Z,6.20
2022-11-16T06:03:45.894Z,6.10
2022-11-16T06:06:12.642Z,6.00
2022-11-16T06:08:39.392Z,6.30
2022-11-16T06:11:08.296Z,6.40
2022-11-16T06:13:36.187Z,5.90
2022-11-16T06:16:03.845Z,6.20
2022-11-16T06:18:33.563Z,6.10
2022-11-16T06:21:00.451Z,6.20
2022-11-16T06:23:27.194Z,6.30
2022-11-16T06:25:54.528Z,6.30
2022-11-16T06:28:21.349Z,6.10
2022-11-16T06:30:48.811Z,6.30
2022-11-16T06:33:16.068Z,6.40
2022-11-16T06:38:09.927Z,6.60
2022-11-16T06:40:37.954Z,6.50
2022-11-16T06:45:31.780Z,6.50
2022-11-16T06:47:58.997Z,6.30
2022-11-16T06:50:25.590Z,6.20
2022-11-16T06:55:20.993Z,6.30
2022-11-16T07:00:17.078Z,6.30
2022-11-16T07:02:43.611Z,5.50
2022-11-16T07:05:10.845Z,6.20
2022-11-16T07:07:37.780Z,6.20
2022-11-16T07:10:05.284Z,6.20
2022-11-16T07:12:31.838Z,6.40
2022-11-16T07:17:25.266Z,6.40
2022-11-16T07:19:51.792Z,6.50
2022-11-16T07:22:19.023Z,6.30
2022-11-16T07:24:45.623Z,6.30
2022-11-16T07:27:12.215Z,6.60
2022-11-16T07:32:06.186Z,6.30
2022-11-16T07:34:32.743Z,6.50
2022-11-16T07:37:00.586Z,6.20
2022-11-16T07:39:28.063Z,6.00
2022-11-16T07:49:18.646Z,6.30
2022-11-16T07:51:46.047Z,6.30
2022-11-16T07:54:15.049Z,6.30
2022-11-16T07:56:42.654Z,6.40
2022-11-16T07:59:10.425Z,6.30
2022-11-16T08:01:41.164Z,6.50
2022-11-16T08:04:10.012Z,6.50
2022-11-16T08:06:40.251Z,6.20
2022-11-16T08:09:10.326Z,6.60
2022-11-16T08:11:37.412Z,6.60
2022-11-16T08:14:06.272Z,6.50
2022-11-16T08:19:01.539Z,6.40
2022-11-16T08:21:29.043Z,6.40
2022-11-16T08:23:58.655Z,6.60
2022-11-16T08:26:26.375Z,6.50
2022-11-16T08:31:24.535Z,6.30
2022-11-16T08:33:51.793Z,6.60
2022-11-16T08:38:46.745Z,6.20
2022-11-16T08:41:13.879Z,6.40
2022-11-16T08:46:10.669Z,6.40
2022-11-16T08:48:38.637Z,6.30
2022-11-16T08:51:17.400Z,6.50
2022-11-16T08:53:48.812Z,6.40
2022-11-16T08:56:17.416Z,6.10
2022-11-16T08:58:46.093Z,6.40
2022-11-16T09:01:15.709Z,6.40
2022-11-16T09:03:43.285Z,6.60
2022-11-16T09:06:11.165Z,6.40
2022-11-16T09:08:39.705Z,6.40
2022-11-16T09:11:09.764Z,6.50
2022-11-16T09:13:36.558Z,6.30
2022-11-16T09:16:04.537Z,6.40
2022-11-16T09:18:31.844Z,6.40
2022-11-16T09:20:59.514Z,6.40
2022-11-16T09:25:55.821Z,6.20
2022-11-16T09:28:22.595Z,6.50
2022-11-16T09:30:50.725Z,6.50
2022-11-16T09:33:17.878Z,6.70
2022-11-16T09:35:44.729Z,6.60
2022-11-16T09:38:16.145Z,6.60
2022-11-16T09:40:47.590Z,6.40
2022-11-16T09:43:27.022Z,6.80
2022-11-16T09:46:04.727Z,6.60
2022-11-16T09:48:33.688Z,6.50
2022-11-16T09:51:07.514Z,6.40
2022-11-16T09:53:40.193Z,6.50
2022-11-16T09:56:10.724Z,6.30
2022-11-16T09:58:42.496Z,6.40
2022-11-16T10:01:21.522Z,6.00
2022-11-16T10:03:53.030Z,6.50
2022-11-16T10:06:22.983Z,6.50
2022-11-16T10:08:53.180Z,6.10
2022-11-16T10:11:32.041Z,6.80
2022-11-16T10:14:13.883Z,6.30
2022-11-16T10:16:48.257Z,6.30
2022-11-16T10:19:22.684Z,6.30
2022-11-16T10:21:57.827Z,6.30
2022-11-16T10:24:33.366Z,6.20
2022-11-16T10:27:21.837Z,6.10
2022-11-16T10:30:03.301Z,6.20
2022-11-16T10:32:32.696Z,6.40
2022-11-16T10:35:05.928Z,6.30
2022-11-16T10:37:36.246Z,6.30
2022-11-16T10:40:18.363Z,6.40
2022-11-16T10:42:51.606Z,6.30
2022-11-16T10:45:23.131Z,6.50
2022-11-16T10:47:53.505Z,6.30
2022-11-16T10:50:32.698Z,6.50
2022-11-16T10:53:02.232Z,6.30
2022-11-16T10:55:31.607Z,6.40
2022-11-16T10:58:00.122Z,6.50
2022-11-16T11:00:36.020Z,6.50
2022-11-16T11:03:03.193Z,6.40
2022-11-16T11:05:30.464Z,6.50
2022-11-16T11:08:02.049Z,6.70
2022-11-16T11:10:33.892Z,6.60
2022-11-16T11:13:27.426Z,6.50
2022-11-16T11:16:14.670Z,6.50
2022-11-16T11:18:42.178Z,6.50
2022-11-16T11:21:18.159Z,6.50
2022-11-16T11:23:47.400Z,6.80
2022-11-16T11:26:34.701Z,6.60
2022-11-16T11:29:18.261Z,6.70
2022-11-16T11:31:49.603Z,6.90
2022-11-16T11:34:20.194Z,6.50
2022-11-16T11:36:50.029Z,6.40
2022-11-16T11:39:32.181Z,6.50
2022-11-16T11:42:05.437Z,6.70
2022-11-16T11:44:41.108Z,6.60
2022-11-16T11:50:16.386Z,6.70
2022-11-16T11:52:50.361Z,6.70
2022-11-16T11:55:18.223Z,6.50
2022-11-16T11:57:49.637Z,6.60
2022-11-16T12:00:17.632Z,6.60
2022-11-16T12:03:09.844Z,6.60
2022-11-16T12:06:01.741Z,6.80
2022-11-16T12:08:42.493Z,6.90
2022-11-16T12:11:21.740Z,6.70
2022-11-16T12:14:09.386Z,6.70
2022-11-16T12:16:40.787Z,6.60
2022-11-16T12:19:27.139Z,6.70
2022-11-16T12:22:06.152Z,6.80
2022-11-16T12:24:58.676Z,6.80
2022-11-16T12:27:37.112Z,6.90
2022-11-16T12:30:13.116Z,6.80
2022-11-16T12:33:00.211Z,6.90
2022-11-16T12:35:40.041Z,6.70
2022-11-16T12:38:37.492Z,6.60
2022-11-16T12:41:41.830Z,6.80
2022-11-16T12:44:22.104Z,6.70
2022-11-16T12:46:58.726Z,6.80
2022-11-16T12:49:57.901Z,6.70
2022-11-16T12:52:36.900Z,7.00
2022-11-16T12:55:26.464Z,6.80
2022-11-16T12:58:07.139Z,6.80
2022-11-16T13:00:47.551Z,6.80
2022-11-16T13:03:20.828Z,6.60
2022-11-16T13:05:56.233Z,6.80
2022-11-16T13:08:37.651Z,6.50
2022-11-16T13:11:13.243Z,6.70
2022-11-16T13:13:42.013Z,6.90
2022-11-16T13:16:10.152Z,6.70
2022-11-16T13:18:41.212Z,6.80
2022-11-16T13:21:18.209Z,7.00
2022-11-16T13:23:55.206Z,6.80
2022-11-16T13:26:27.863Z,6.70
2022-11-16T13:29:00.359Z,6.70
2022-11-16T13:31:32.251Z,6.90
2022-11-16T13:34:03.189Z,7.00
2022-11-16T13:36:44.511Z,6.90
2022-11-16T13:39:18.709Z,6.90
2022-11-16T13:41:50.423Z,6.90
2022-11-16T13:44:28.877Z,6.90
2022-11-16T13:47:03.431Z,6.90
2022-11-16T13:49:49.265Z,7.20
2022-11-16T13:52:26.372Z,6.90
2022-11-16T13:55:12.693Z,7.00
2022-11-16T13:57:47.181Z,7.20
2022-11-16T14:00:22.439Z,7.00
2022-11-16T14:03:09.079Z,7.00
2022-11-16T14:05:40.884Z,6.90
2022-11-16T14:08:46.674Z,6.80
2022-11-16T14:11:43.603Z,7.00
2022-11-16T14:14:12.064Z,7.20
2022-11-16T14:16:49.032Z,6.90
2022-11-16T14:19:54.988Z,7.00
2022-11-16T14:22:52.828Z,7.00
2022-11-16T14:25:31.461Z,7.00
2022-11-16T14:28:11.568Z,7.00
2022-11-16T14:30:51.807Z,7.00
2022-11-16T14:33:29.867Z,7.20
2022-11-16T14:35:56.827Z,6.80
2022-11-16T14:38:31.192Z,7.20
2022-11-16T14:40:59.931Z,7.00
2022-11-16T14:43:32.838Z,7.00
2022-11-16T14:46:03.921Z,7.20
2022-11-16T14:48:31.284Z,7.00
2022-11-16T14:51:03.823Z,6.90
2022-11-16T14:53:33.843Z,7.00
2022-11-16T14:56:09.860Z,6.90
2022-11-16T14:58:37.602Z,8.90
2022-11-16T15:01:07.526Z,7.00
2022-11-16T15:03:40.435Z,7.00
2022-11-16T15:08:41.950Z,7.00
2022-11-16T15:11:14.022Z,7.00
2022-11-16T15:13:45.697Z,7.10
2022-11-16T15:16:17.011Z,7.20
2022-11-16T15:18:56.449Z,6.90
2022-11-16T15:21:23.802Z,7.00
2022-11-16T15:24:15.631Z,6.90
2022-11-16T15:26:38.848Z,6.90
2022-11-16T15:29:05.486Z,6.70
2022-11-16T15:33:59.452Z,7.10
2022-11-16T15:36:32.678Z,7.10
2022-11-16T15:39:02.360Z,6.70
2022-11-16T15:41:29.825Z,6.70
2022-11-16T15:44:14.122Z,6.90
2022-11-16T15:46:44.122Z,7.00
2022-11-16T15:49:22.259Z,6.90
2022-11-16T15:51:48.918Z,6.70
2022-11-16T15:54:24.259Z,7.10
2022-11-16T15:56:52.431Z,7.00
2022-11-16T15:59:25.147Z,7.20
2022-11-16T16:01:51.851Z,7.00
2022-11-16T16:04:19.166Z,7.20
2022-11-16T16:06:50.486Z,7.30
2022-11-16T16:09:31.465Z,6.80
2022-11-16T16:12:21.004Z,7.20
2022-11-16T16:14:52.360Z,6.90
2022-11-16T16:17:24.593Z,6.90
2022-11-16T16:19:55.377Z,6.90
2022-11-16T16:22:28.876Z,6.70
2022-11-16T16:24:56.398Z,6.80
2022-11-16T16:27:26.762Z,6.70
2022-11-16T16:29:55.057Z,6.90
2022-11-16T16:32:26.882Z,7.00
2022-11-16T16:34:58.925Z,6.90
2022-11-16T16:37:30.476Z,6.90
2022-11-16T16:39:58.576Z,7.10
2022-11-16T16:42:25.505Z,6.70
2022-11-16T16:44:52.126Z,6.80
2022-11-16T16:47:20.508Z,6.90
2022-11-16T16:49:49.993Z,6.70
2022-11-16T16:52:17.895Z,6.80
2022-11-16T16:54:44.529Z,7.00
2022-11-16T16:57:15.662Z,6.90
2022-11-16T16:59:44.347Z,7.40
2022-11-16T17:02:11.257Z,7.00
2022-11-16T17:04:37.903Z,7.10
2022-11-16T17:07:06.957Z,6.70
2022-11-16T17:09:40.855Z,6.90
2022-11-16T17:12:07.685Z,6.80
2022-11-16T17:14:36.579Z,6.80
2022-11-16T17:17:03.684Z,6.80
2022-11-16T17:19:30.831Z,7.20
2022-11-16T17:24:26.151Z,6.30
2022-11-16T17:29:19.830Z,6.70
2022-11-16T17:31:48.201Z,6.80
2022-11-16T17:36:42.671Z,6.60
2022-11-16T17:39:10.124Z,6.30
2022-11-16T17:41:38.299Z,6.60
2022-11-16T17:44:06.267Z,6.90
2022-11-16T17:46:33.277Z,6.80
2022-11-16T17:49:02.524Z,6.60
2022-11-16T17:51:30.374Z,6.60
2022-11-16T17:53:59.794Z,6.60
2022-11-16T17:56:31.625Z,6.70
2022-11-16T17:59:00.909Z,6.60
2022-11-16T18:01:30.961Z,6.80
2022-11-16T18:06:26.782Z,6.50
2022-11-16T18:08:55.690Z,7.20
2022-11-16T18:11:24.645Z,6.50
2022-11-16T18:13:53.245Z,6.60
2022-11-16T18:16:21.885Z,6.50
2022-11-16T18:18:49.671Z,6.60
2022-11-16T18:21:20.794Z,8.90
2022-11-16T18:23:49.355Z,6.60
2022-11-16T18:26:18.001Z,6.40
2022-11-16T18:28:44.855Z,6.60
2022-11-16T18:31:13.531Z,6.60
2022-11-16T18:33:40.516Z,6.40
2022-11-16T18:36:09.166Z,6.60
2022-11-16T18:38:36.853Z,6.50
2022-11-16T18:41:06.014Z,6.40
2022-11-16T18:43:34.055Z,6.60
2022-11-16T18:46:01.171Z,6.50
2022-11-16T18:48:27.821Z,6.50
2022-11-16T18:50:58.441Z,6.50
2022-11-16T18:53:25.370Z,6.70
2022-11-16T18:55:57.622Z,6.50
2022-11-16T19:01:20.011Z,6.60
2022-11-16T19:03:47.918Z,6.40
2022-11-16T19:06:17.207Z,6.40
2022-11-16T19:08:49.004Z,6.40
2022-11-16T19:13:46.233Z,6.40
2022-11-16T19:16:13.444Z,6.20
2022-11-16T19:18:40.531Z,6.80
2022-11-16T19:21:09.307Z,6.70
2022-11-16T19:23:37.074Z,6.50
2022-11-16T19:26:06.835Z,6.40
2022-11-16T19:28:36.037Z,6.60
2022-11-16T19:31:08.524Z,6.30
2022-11-16T19:33:37.599Z,6.40
2022-11-16T19:36:10.274Z,6.40
2022-11-16T19:38:38.969Z,6.40
2022-11-16T19:41:06.375Z,6.40
2022-11-16T19:43:35.346Z,6.30
2022-11-16T19:46:03.471Z,6.80
2022-11-16T19:48:35.513Z,6.40
2022-11-16T19:51:07.910Z,6.20
2022-11-16T19:53:35.915Z,6.40
2022-11-16T19:56:06.313Z,6.30
2022-11-16T19:58:36.300Z,6.10
2022-11-16T20:01:03.952Z,6.40
2022-11-16T20:03:32.860Z,6.70
2022-11-16T20:06:07.976Z,6.50
2022-11-16T20:13:29.235Z,6.60
2022-11-16T20:18:23.734Z,6.40
2022-11-16T20:20:54.680Z,6.30
2022-11-16T20:25:50.824Z,6.40
2022-11-16T20:28:17.673Z,6.40
2022-11-16T20:30:49.485Z,6.50
2022-11-16T20:33:17.497Z,6.40
2022-11-16T20:35:44.187Z,6.20
2022-11-16T20:38:12.425Z,6.10
2022-11-16T20:40:39.178Z,6.30
2022-11-16T20:43:14.697Z,6.10
2022-11-16T20:45:41.299Z,5.80
2022-11-16T20:48:07.962Z,6.30
2022-11-16T20:50:35.031Z,6.00
2022-11-16T20:53:01.767Z,5.90
2022-11-16T20:55:43.713Z,6.00
2022-11-16T21:00:49.926Z,6.00
2022-11-16T21:03:17.257Z,6.10
2022-11-16T21:05:45.559Z,6.00
2022-11-16T21:08:12.662Z,5.90
2022-11-16T21:10:40.234Z,6.10
2022-11-16T21:13:29.866Z,6.30
2022-11-16T21:16:04.589Z,5.70
2022-11-16T21:18:33.320Z,6.10
2022-11-16T21:21:01.178Z,6.00
2022-11-16T21:23:28.785Z,5.80
2022-11-16T21:26:01.109Z,5.60
2022-11-16T21:28:27.699Z,5.70
2022-11-16T21:31:05.761Z,5.80
2022-11-16T21:33:34.449Z,5.80
2022-11-16T21:36:05.403Z,5.70
2022-11-16T21:38:33.451Z,5.60
2022-11-16T21:41:05.522Z,5.60
2022-11-16T21:43:38.968Z,5.60
2022-11-16T21:46:10.756Z,5.70
2022-11-16T21:48:39.488Z,5.50
2022-11-16T21:51:08.855Z,5.50
2022-11-16T21:53:50.106Z,5.50
2022-11-16T21:56:23.165Z,5.50
2022-11-16T21:58:52.059Z,5.50
2022-11-16T22:01:20.226Z,5.50
2022-11-16T22:04:08.131Z,5.40
2022-11-16T22:06:53.929Z,5.50
2022-11-16T22:09:21.057Z,7.30
2022-11-16T22:11:49.086Z,5.60
2022-11-16T22:14:15.892Z,5.30
2022-11-16T22:21:39.006Z,5.30
2022-11-16T22:24:10.104Z,6.80
2022-11-16T22:29:08.687Z,5.30
2022-11-16T22:31:36.375Z,5.20
2022-11-16T22:34:03.103Z,5.20
2022-11-16T22:38:56.725Z,5.50
2022-11-16T22:41:23.316Z,5.50
2022-11-16T22:43:49.848Z,5.20
2022-11-16T22:46:17.136Z,5.30
2022-11-16T22:48:44.261Z,5.40
2022-11-16T22:51:19.312Z,5.30
2022-11-16T22:53:46.241Z,5.50
2022-11-16T22:56:13.438Z,5.20
2022-11-16T22:58:40.164Z,4.90
2022-11-16T23:01:08.478Z,5.00
2022-11-16T23:03:36.623Z,4.90
2022-11-16T23:06:05.051Z,5.30
2022-11-16T23:08:32.504Z,4.70
2022-11-16T23:11:19.019Z,5.10
2022-11-16T23:14:04.259Z,4.80
2022-11-16T23:16:31.172Z,5.00
2022-11-16T23:18:58.572Z,6.50
2022-11-16T23:21:43.260Z,6.80
2022-11-16T23:24:28.803Z,4.90
2022-11-16T23:27:14.330Z,4.70
2022-11-16T23:29:42.104Z,4.80
2022-11-16T23:34:36.264Z,4.90
2022-11-16T23:37:03.233Z,4.60
2022-11-16T23:39:29.951Z,4.40
2022-11-16T23:44:42.452Z,4.60
2022-11-16T23:47:09.666Z,4.20
2022-11-16T23:49:36.994Z,4.60
2022-11-16T23:54:30.712Z,4.50
2022-11-16T23:56:57.468Z,4.70
2022-11-16T23:59:24.008Z,4.50
